Time;durP1;ratioP1;P1;durP2;ratioP2;P2;SDS_P1;SDS_P2;PMS_P1;PMS_P2;Temp;Humidity;BMP_temperature;BMP_pressure;BME280_temperature;BME280_humidity;BME280_pressure;Samples;Min_cycle;Max_cycle;Signal;HPM_P1;HPM_P2
2022/08/20 00:00:04;;;;;;;13.77;11.00;;;;;;;;;;4979608;28;20102;-69
2022/08/20 00:02:38;;;;;;;14.05;11.88;;;19.10;99.90;;;;;;4983580;28;20495;-68
2022/08/20 00:05:04;;;;;;;13.52;10.43;;;19.00;99.90;;;;;;4960958;28;20055;-68
2022/08/20 00:07:29;;;;;;;14.35;11.35;;;18.90;99.90;;;;;;4936673;28;20045;-68
2022/08/20 00:09:55;;;;;;;12.85;10.40;;;19.00;99.90;;;;;;4961373;28;20408;-68
2022/08/20 00:12:20;;;;;;;11.60;10.43;;;18.60;99.90;;;;;;4968087;28;20046;-68
2022/08/20 00:14:46;;;;;;;12.25;10.10;;;18.60;99.90;;;;;;4964637;28;20090;-68
2022/08/20 00:17:12;;;;;;;14.93;10.95;;;18.80;99.90;;;;;;4967709;28;20047;-68
2022/08/20 00:19:37;;;;;;;11.82;10.60;;;18.70;99.90;;;;;;4971965;28;20046;-69
2022/08/20 00:22:03;;;;;;;15.40;10.48;;;18.70;99.90;;;;;;4955451;28;20446;-68
2022/08/20 00:24:29;;;;;;;12.75;10.90;;;18.70;99.90;;;;;;4986507;28;20073;-68
2022/08/20 00:26:54;;;;;;;12.85;11.00;;;18.70;99.90;;;;;;4952645;29;20411;-68
2022/08/20 00:29:20;;;;;;;11.98;10.07;;;18.60;99.90;;;;;;4974926;28;20475;-68
2022/08/20 00:31:46;;;;;;;14.82;10.18;;;18.60;99.90;;;;;;4958470;28;20043;-68
2022/08/20 00:34:11;;;;;;;13.18;10.07;;;18.60;99.90;;;;;;4973988;28;20134;-68
2022/08/20 00:36:37;;;;;;;14.57;9.68;;;18.60;99.90;;;;;;4974980;28;20097;-68
2022/08/20 00:39:03;;;;;;;12.90;9.68;;;18.60;99.90;;;;;;4943761;28;20134;-68
2022/08/20 00:41:29;;;;;;;11.68;10.13;;;18.80;99.90;;;;;;4975075;28;20081;-68
2022/08/20 00:44:17;;;;;;;13.70;10.68;;;18.60;99.90;;;;;;4974605;28;20109;-68
2022/08/20 00:46:44;;;;;;;12.18;9.93;;;18.70;99.90;;;;;;4960563;28;20090;-68
2022/08/20 00:49:22;;;;;;;12.15;9.45;;;18.70;99.90;;;;;;4973841;28;20573;-69
2022/08/20 00:51:56;;;;;;;12.00;9.82;;;18.60;99.90;;;;;;4974315;28;20398;-69
2022/08/20 00:54:27;;;;;;;12.25;9.73;;;18.60;99.90;;;;;;4976244;28;20635;-68
2022/08/20 00:57:02;;;;;;;13.30;9.82;;;18.60;99.90;;;;;;4977383;28;20098;-68
2022/08/20 00:59:30;;;;;;;14.30;9.77;;;18.60;99.90;;;;;;4964514;28;20055;-68
2022/08/20 01:01:57;;;;;;;12.00;9.27;;;18.50;99.90;;;;;;4956662;28;20058;-68
2022/08/20 01:04:25;;;;;;;14.48;10.20;;;18.60;99.90;;;;;;4969874;28;20047;-68
2022/08/20 01:06:51;;;;;;;13.10;9.63;;;18.50;99.90;;;;;;4957773;28;20057;-68
2022/08/20 01:09:17;;;;;;;13.75;10.20;;;18.50;99.90;;;;;;4941536;28;20047;-68
2022/08/20 01:11:42;;;;;;;13.65;9.45;;;18.40;99.90;;;;;;4966596;28;20113;-68
2022/08/20 01:16:54;;;;;;;11.70;9.00;;;18.40;99.90;;;;;;4976746;28;20062;-68
2022/08/20 01:19:27;;;;;;;10.63;9.48;;;18.40;99.90;;;;;;4974044;28;20105;-68
2022/08/20 01:21:53;;;;;;;12.30;8.40;;;18.40;99.90;;;;;;4974540;28;20055;-68
2022/08/20 01:24:33;;;;;;;11.50;8.70;;;18.40;99.90;;;;;;4971127;28;20058;-68
2022/08/20 01:27:01;;;;;;;10.98;9.27;;;18.30;99.90;;;;;;4975680;28;20104;-68
2022/08/20 01:29:33;;;;;;;13.93;9.27;;;18.30;99.90;;;;;;4972910;28;20129;-68
2022/08/20 01:32:01;;;;;;;11.82;8.07;;;18.30;99.90;;;;;;4990139;28;20050;-68
2022/08/20 01:34:27;;;;;;;14.63;8.75;;;18.40;99.90;;;;;;4972680;28;20051;-68
2022/08/20 01:36:56;;;;;;;12.20;9.60;;;18.40;99.90;;;;;;4970415;28;20133;-68
2022/08/20 01:39:25;;;;;;;15.15;9.57;;;18.20;99.90;;;;;;4974030;28;20380;-68
2022/08/20 01:42:24;;;;;;;11.98;9.35;;;18.30;99.90;;;;;;4973475;28;20066;-69
2022/08/20 01:44:51;;;;;;;14.38;9.55;;;18.30;99.90;;;;;;4974928;28;20570;-68
2022/08/20 01:47:24;;;;;;;13.88;9.07;;;18.20;99.90;;;;;;4973264;28;20065;-68
2022/08/20 01:49:53;;;;;;;15.02;10.20;;;18.20;99.90;;;;;;4956972;28;20086;-68
2022/08/20 01:52:48;;;;;;;13.82;10.38;;;18.20;99.90;;;;;;4969258;28;20114;-69
2022/08/20 01:55:14;;;;;;;13.50;9.45;;;18.20;99.90;;;;;;4973917;28;20045;-69
2022/08/20 01:57:40;;;;;;;12.75;9.48;;;18.10;99.90;;;;;;4972953;28;20397;-69
2022/08/20 02:00:12;;;;;;;18.00;10.07;;;18.20;99.90;;;;;;4971928;28;20133;-68
2022/08/20 02:02:38;;;;;;;;;;;18.20;99.90;;;;;;4973326;28;20055;-69
2022/08/20 02:05:04;;;;;;;13.10;9.65;;;17.90;99.90;;;;;;4974817;28;19992;-69
2022/08/20 02:07:31;;;;;;;11.35;9.45;;;18.10;99.90;;;;;;4970901;28;20047;-69
2022/08/20 02:09:56;;;;;;;13.50;9.10;;;18.10;99.90;;;;;;4967627;28;20047;-68
2022/08/20 02:12:22;;;;;;;12.68;10.23;;;18.00;99.90;;;;;;4966021;28;20459;-69
2022/08/20 02:14:50;;;;;;;11.35;8.40;;;18.00;99.90;;;;;;4969988;28;20133;-68
2022/08/20 02:17:18;;;;;;;12.10;9.38;;;18.10;99.90;;;;;;4973192;28;20053;-68
2022/08/20 02:19:55;;;;;;;12.32;9.40;;;17.90;99.90;;;;;;4984347;28;20066;-68
2022/08/20 02:22:39;;;;;;;12.52;9.10;;;17.90;99.90;;;;;;4970784;28;20054;-69
2022/08/20 02:25:07;;;;;;;13.65;9.10;;;17.60;99.90;;;;;;4973015;28;20506;-69
2022/08/20 02:27:34;;;;;;;12.35;9.32;;;17.90;99.90;;;;;;4970948;28;20633;-68
2022/08/20 02:30:00;;;;;;;10.73;7.60;;;17.80;99.90;;;;;;4973705;28;20062;-68
2022/08/20 02:32:26;;;;;;;11.98;8.57;;;17.80;99.90;;;;;;4965888;28;20058;-68
2022/08/20 02:34:52;;;;;;;14.90;9.27;;;17.80;99.90;;;;;;4971982;28;20047;-69
2022/08/20 02:37:18;;;;;;;11.45;9.13;;;17.80;99.90;;;;;;4967317;28;20070;-68
2022/08/20 02:39:45;;;;;;;11.57;9.18;;;17.80;99.90;;;;;;4968738;28;20089;-68
2022/08/20 02:42:11;;;;;;;12.68;8.82;;;17.70;99.90;;;;;;4963327;28;20038;-69
2022/08/20 02:44:38;;;;;;;13.60;9.38;;;18.00;99.90;;;;;;4948565;28;20388;-68
2022/08/20 02:47:04;;;;;;;15.85;9.50;;;17.80;99.90;;;;;;4967602;28;20070;-69
2022/08/20 02:49:30;;;;;;;17.05;8.73;;;17.70;99.90;;;;;;4972219;28;20050;-69
2022/08/20 02:51:56;;;;;;;12.38;9.00;;;17.70;99.90;;;;;;4969570;28;20043;-69
2022/08/20 02:54:21;;;;;;;14.48;9.60;;;17.70;99.90;;;;;;4974508;28;20054;-68
2022/08/20 02:56:47;;;;;;;12.68;9.35;;;17.70;99.90;;;;;;4974324;28;20047;-68
2022/08/20 02:59:12;;;;;;;17.17;9.43;;;17.80;99.90;;;;;;4962779;28;20534;-69
2022/08/20 03:01:38;;;;;;;11.13;8.63;;;17.50;99.90;;;;;;4971925;28;20034;-69
2022/08/20 03:04:04;;;;;;;15.60;9.43;;;17.60;99.90;;;;;;4972876;28;20054;-68
2022/08/20 03:06:30;;;;;;;17.35;9.68;;;17.60;99.90;;;;;;4967715;28;20058;-68
2022/08/20 03:08:56;;;;;;;11.55;9.25;;;17.60;99.90;;;;;;4939286;28;20480;-68
2022/08/20 03:11:21;;;;;;;14.90;10.20;;;17.50;99.90;;;;;;4954225;28;20109;-68
2022/08/20 03:13:47;;;;;;;16.08;9.30;;;17.50;99.90;;;;;;4972176;28;20387;-68
2022/08/20 03:16:13;;;;;;;15.38;10.20;;;17.40;99.90;;;;;;4972746;28;20093;-68
2022/08/20 03:18:42;;;;;;;13.70;10.25;;;17.40;99.90;;;;;;4956291;28;20086;-68
2022/08/20 03:21:08;;;;;;;13.23;10.30;;;17.40;99.90;;;;;;4970430;28;20086;-68
2022/08/20 03:23:35;;;;;;;15.18;10.02;;;17.10;99.90;;;;;;4973300;28;20051;-68
2022/08/20 03:26:08;;;;;;;15.73;10.30;;;17.20;99.90;;;;;;4973306;28;20054;-68
2022/08/20 03:28:34;;;;;;;11.38;9.43;;;17.30;99.90;;;;;;4973727;28;20057;-68
2022/08/20 03:31:01;;;;;;;13.55;10.02;;;17.30;99.90;;;;;;4971580;28;20046;-68
2022/08/20 03:33:27;;;;;;;14.52;10.90;;;17.60;99.90;;;;;;4972035;28;20054;-68
2022/08/20 03:35:53;;;;;;;13.43;8.15;;;17.20;99.90;;;;;;4970666;28;20062;-68
2022/08/20 03:38:22;;;;;;;14.05;8.75;;;17.20;99.90;;;;;;4967534;28;20530;-68
2022/08/20 03:40:48;;;;;;;14.55;10.27;;;17.30;99.90;;;;;;4965948;28;20059;-68
2022/08/20 03:43:14;;;;;;;14.13;9.85;;;17.20;99.90;;;;;;4959932;28;20051;-68
2022/08/20 03:45:42;;;;;;;15.50;9.55;;;17.20;99.90;;;;;;4968558;28;20042;-68
2022/08/20 03:48:14;;;;;;;14.63;9.95;;;17.10;99.90;;;;;;4971312;28;20053;-68
2022/08/20 03:50:41;;;;;;;13.05;9.43;;;17.20;99.90;;;;;;4989440;28;20061;-67
2022/08/20 03:53:08;;;;;;;15.27;9.65;;;17.10;99.90;;;;;;4982023;28;20066;-68
2022/08/20 03:55:34;;;;;;;15.70;10.25;;;16.80;99.90;;;;;;4972161;28;20046;-68
2022/08/20 03:58:02;;;;;;;16.98;11.18;;;17.10;99.90;;;;;;4985148;28;20498;-68
2022/08/20 04:00:37;;;;;;;15.68;9.93;;;17.10;99.90;;;;;;4970274;28;20051;-68
2022/08/20 04:03:04;;;;;;;15.75;10.73;;;17.00;99.90;;;;;;4973221;28;20094;-68
2022/08/20 04:05:32;;;;;;;15.95;10.02;;;17.00;99.90;;;;;;4967041;28;20436;-68
2022/08/20 04:07:59;;;;;;;13.93;10.73;;;17.00;99.90;;;;;;4966766;28;20047;-68
2022/08/20 04:10:25;;;;;;;14.63;10.30;;;17.00;99.90;;;;;;4960266;28;20058;-68
2022/08/20 04:12:51;;;;;;;17.45;10.27;;;17.00;99.90;;;;;;4959380;28;20142;-68
2022/08/20 04:15:17;;;;;;;23.08;10.75;;;16.90;99.90;;;;;;4954938;28;20542;-68
2022/08/20 04:17:49;;;;;;;13.10;10.18;;;16.90;99.90;;;;;;4973044;28;20042;-68
2022/08/20 04:20:22;;;;;;;19.45;10.15;;;16.90;99.90;;;;;;4969133;28;20062;-68
2022/08/20 04:22:48;;;;;;;14.88;9.90;;;16.90;99.90;;;;;;4968095;28;20510;-68
2022/08/20 04:25:14;;;;;;;17.08;10.15;;;16.90;99.90;;;;;;4962133;28;20046;-68
2022/08/20 04:27:40;;;;;;;17.27;10.75;;;16.90;99.90;;;;;;4973043;28;20403;-68
2022/08/20 04:30:13;;;;;;;18.02;10.18;;;16.90;99.90;;;;;;4972915;28;20050;-68
2022/08/20 04:32:40;;;;;;;13.32;9.07;;;16.90;99.90;;;;;;4971507;28;20058;-69
2022/08/20 04:35:08;;;;;;;10.15;8.50;;;16.60;99.90;;;;;;4949895;28;20052;-68
2022/08/20 04:37:34;;;;;;;12.15;8.40;;;16.80;99.90;;;;;;4954046;28;20495;-68
2022/08/20 04:42:54;;;;;;;12.27;8.50;;;16.90;99.90;;;;;;4970784;28;20491;-69
2022/08/20 04:45:20;;;;;;;15.35;9.00;;;16.90;99.90;;;;;;4971611;28;20051;-68
2022/08/20 04:47:47;;;;;;;14.52;8.80;;;16.90;99.90;;;;;;4966878;28;20408;-68
2022/08/20 04:50:13;;;;;;;11.45;7.80;;;16.90;99.90;;;;;;4963785;28;20086;-68
2022/08/20 04:52:39;;;;;;;12.27;8.57;;;16.90;99.90;;;;;;4969230;28;20094;-69
2022/08/20 04:56:06;;;;;;;13.52;7.82;;;16.90;99.90;;;;;;4984688;28;20546;-68
2022/08/20 04:59:26;;;;;;;12.63;8.10;;;17.00;99.90;;;;;;4960054;28;20066;-68
2022/08/20 05:02:19;;;;;;;15.40;8.52;;;16.90;99.90;;;;;;4940049;28;20151;-68
2022/08/20 05:04:46;;;;;;;12.18;7.07;;;16.80;99.90;;;;;;4933671;29;20059;-68
2022/08/20 05:07:16;;;;;;;9.73;6.80;;;17.30;99.90;;;;;;4952101;28;20083;-68
2022/08/20 05:09:46;;;;;;;10.50;7.80;;;16.20;99.90;;;;;;4975504;28;20484;-68
2022/08/20 05:12:18;;;;;;;10.43;7.70;;;16.80;99.90;;;;;;4971832;28;20142;-68
2022/08/20 05:14:48;;;;;;;10.68;7.43;;;16.80;99.90;;;;;;4968022;28;20145;-68
2022/08/20 05:17:20;;;;;;;11.40;8.07;;;16.80;99.90;;;;;;4992218;28;20388;-68
2022/08/20 05:19:47;;;;;;;9.93;7.22;;;16.80;99.90;;;;;;4990301;28;20051;-68
2022/08/20 05:22:12;;;;;;;12.50;7.78;;;16.70;99.90;;;;;;4973498;28;20054;-68
2022/08/20 05:24:38;;;;;;;15.40;7.75;;;16.70;99.90;;;;;;4956323;28;20046;-68
2022/08/20 05:27:04;;;;;;;10.63;7.15;;;16.70;99.90;;;;;;4957739;28;20059;-69
2022/08/20 05:29:29;;;;;;;8.13;6.20;;;16.70;99.90;;;;;;4973167;28;20055;-69
2022/08/20 05:31:55;;;;;;;14.02;7.72;;;16.70;99.90;;;;;;4976266;28;20047;-69
2022/08/20 05:34:21;;;;;;;12.38;6.97;;;16.60;99.90;;;;;;4976437;28;20047;-69
2022/08/20 05:36:49;;;;;;;13.30;8.13;;;16.60;99.90;;;;;;4990423;28;20080;-69
2022/08/20 05:39:17;;;;;;;12.68;8.10;;;16.70;99.90;;;;;;4976405;28;20046;-69
2022/08/20 05:41:42;;;;;;;14.27;7.38;;;16.70;99.90;;;;;;4974544;28;20492;-70
2022/08/20 05:44:12;;;;;;;12.48;7.35;;;16.40;99.90;;;;;;4980452;28;20071;-69
2022/08/20 05:46:42;;;;;;;13.65;7.78;;;16.70;99.90;;;;;;4991374;28;20395;-69
2022/08/20 05:49:09;;;;;;;12.68;7.63;;;16.70;99.90;;;;;;4958798;28;20059;-69
2022/08/20 05:51:35;;;;;;;9.50;6.57;;;16.80;99.90;;;;;;4973134;28;20055;-69
2022/08/20 05:54:02;;;;;;;14.88;6.97;;;16.80;99.90;;;;;;4968191;28;20050;-68
2022/08/20 05:56:29;;;;;;;11.68;6.70;;;16.80;99.90;;;;;;4967573;28;20038;-69
2022/08/20 05:58:56;;;;;;;12.35;6.85;;;16.90;99.90;;;;;;4963918;28;20058;-69
2022/08/20 06:01:22;;;;;;;12.68;7.30;;;16.80;99.90;;;;;;4964466;28;20047;-69
2022/08/20 06:07:23;;;;;;;14.73;6.25;;;16.90;99.90;;;;;;4982225;28;20122;-69
2022/08/20 06:09:49;;;;;;;12.00;6.72;;;16.90;99.90;;;;;;4963097;28;20047;-69
2022/08/20 06:12:15;;;;;;;11.38;6.65;;;16.90;99.90;;;;;;4967347;28;20050;-69
2022/08/20 06:22:52;;;;;;;14.02;6.10;;;17.60;99.90;;;;;;5161234;23;20482;-69
2022/08/20 06:25:18;;;;;;;15.27;6.20;;;17.70;99.90;;;;;;4994135;28;20069;-69
2022/08/20 06:27:44;;;;;;;11.25;6.35;;;18.00;99.90;;;;;;4994246;28;20049;-69
2022/08/20 06:30:12;;;;;;;9.20;4.85;;;18.20;99.90;;;;;;4995073;28;20549;-69
2022/08/20 06:32:39;;;;;;;6.93;5.22;;;18.10;99.90;;;;;;4993490;28;20414;-69
2022/08/20 06:35:06;;;;;;;13.25;5.53;;;;;;;;;;5009682;28;20047;-69
2022/08/20 06:37:35;;;;;;;9.27;4.68;;;;;;;;;;5008286;28;20133;-69
2022/08/20 06:40:06;;;;;;;10.82;5.15;;;;;;;;;;4994947;28;20058;-69
2022/08/20 06:42:32;;;;;;;10.57;5.10;;;;;;;;;;4994236;28;20108;-69
2022/08/20 06:44:59;;;;;;;13.25;5.05;;;;;;;;;;4993137;28;20530;-69
2022/08/20 06:47:25;;;;;;;11.13;4.68;;;;;;;;;;5008874;28;20058;-69
2022/08/20 06:49:51;;;;;;;8.00;4.20;;;;;;;;;;4995039;28;20065;-69
2022/08/20 06:52:46;;;;;;;8.80;4.65;;;;;;;;;;4976469;28;20050;-69
2022/08/20 06:55:13;;;;;;;9.18;4.90;;;;;;;;;;4994988;28;20052;-69
2022/08/20 06:58:04;;;;;;;13.00;4.35;;;;;;;;;;4993465;28;20447;-69
2022/08/20 07:00:32;;;;;;;7.53;4.20;;;;;;;;;;4947655;28;20049;-69
2022/08/20 07:03:26;;;;;;;11.55;4.47;;;;;;;;;;4989320;28;20409;-69
2022/08/20 07:09:20;;;;;;;9.30;4.22;;;;;;;;;;4993932;28;20078;-69
2022/08/20 07:11:47;;;;;;;6.65;3.45;;;;;;;;;;4993568;28;20492;-69
2022/08/20 07:18:06;;;;;;;11.43;2.88;;;;;;;;;;4986287;28;20038;-70
2022/08/20 07:20:39;;;;;;;7.47;2.55;;;19.30;99.90;;;;;;4976708;28;20125;-70
2022/08/20 07:23:07;;;;;;;10.48;2.97;;;19.50;99.90;;;;;;5011730;28;20057;-69
2022/08/20 07:25:36;;;;;;;9.35;2.83;;;19.30;99.90;;;;;;4998918;28;20526;-69
2022/08/20 07:28:11;;;;;;;8.45;3.00;;;20.00;99.90;;;;;;5033046;28;20049;-69
2022/08/20 07:33:45;;;;;;;7.38;2.35;;;19.70;99.90;;;;;;5033069;28;20087;-69
2022/08/20 07:36:11;;;;;;;9.52;2.70;;;20.00;99.90;;;;;;5032245;28;20139;-69
2022/08/20 07:38:40;;;;;;;6.47;1.80;;;20.20;99.90;;;;;;5015281;28;20061;-69
2022/08/20 07:41:31;;;;;;;6.43;1.48;;;20.70;99.90;;;;;;5032463;28;20045;-69
2022/08/20 07:43:57;;;;;;;6.35;1.55;;;20.30;99.90;;;;;;5019261;28;20493;-69
2022/08/20 07:46:23;;;;;;;6.05;1.38;;;20.30;99.90;;;;;;5015333;28;20057;-69
2022/08/20 07:48:50;;;;;;;3.63;1.60;;;20.10;99.90;;;;;;5015759;28;20085;-69
2022/08/20 07:51:30;;;;;;;7.60;1.73;;;20.20;99.90;;;;;;5031513;28;20128;-69
2022/08/20 07:54:21;;;;;;;4.78;1.40;;;21.30;99.90;;;;;;5032821;28;20049;-70
2022/08/20 07:56:47;;;;;;;4.00;1.42;;;20.70;99.90;;;;;;5014889;28;20045;-69
2022/08/20 07:59:20;;;;;;;4.22;1.30;;;20.80;99.90;;;;;;5014396;28;20416;-70
2022/08/20 08:01:48;;;;;;;6.13;1.08;;;20.20;99.90;;;;;;5031657;28;20100;-69
2022/08/20 08:04:14;;;;;;;4.93;1.50;;;20.70;99.90;;;;;;5014689;28;22157;-69
2022/08/20 08:06:44;;;;;;;5.07;1.23;;;20.50;99.90;;;;;;5014836;28;20049;-69
2022/08/20 08:09:31;;;;;;;4.32;1.20;;;20.90;99.90;;;;;;5015537;28;20410;-68
2022/08/20 08:11:58;;;;;;;5.35;1.40;;;20.70;99.90;;;;;;5031758;28;20050;-69
2022/08/20 08:14:27;;;;;;;3.40;1.20;;;20.70;99.90;;;;;;5032691;28;20052;-69
2022/08/20 08:16:58;;;;;;;4.65;1.00;;;20.70;99.90;;;;;;5030057;28;20048;-69
2022/08/20 08:19:27;;;;;;;4.47;1.10;;;20.70;99.90;;;;;;5032254;28;20382;-68
2022/08/20 08:21:54;;;;;;;3.78;1.27;;;20.70;99.90;;;;;;5032049;28;20128;-68
2022/08/20 08:24:20;;;;;;;4.22;1.42;;;20.90;99.90;;;;;;5014976;28;20054;-68
2022/08/20 08:26:48;;;;;;;5.05;1.10;;;21.10;99.90;;;;;;5014563;28;20425;-68
2022/08/20 08:29:50;;;;;;;8.10;1.00;;;21.20;99.90;;;;;;5028844;28;20045;-67
2022/08/20 08:36:19;;;;;;;3.50;1.17;;;21.90;99.90;;;;;;5014152;28;20136;-66
2022/08/20 08:38:45;;;;;;;4.38;1.20;;;20.80;99.90;;;;;;5013618;28;20525;-67
2022/08/20 08:41:32;;;;;;;3.25;0.93;;;21.10;99.90;;;;;;5017003;28;20053;-67
2022/08/20 08:44:06;;;;;;;4.75;1.23;;;21.40;99.90;;;;;;5019232;28;20125;-67
2022/08/20 08:46:41;;;;;;;3.63;1.15;;;21.40;99.90;;;;;;4979103;28;20456;-67
2022/08/20 08:49:11;;;;;;;3.47;0.90;;;21.80;99.90;;;;;;5013752;28;20058;-67
2022/08/20 08:51:54;;;;;;;4.07;1.20;;;21.60;99.90;;;;;;5013438;28;20481;-67
2022/08/20 08:54:23;;;;;;;3.15;0.90;;;21.70;99.90;;;;;;4997617;28;20053;-67
2022/08/20 08:56:51;;;;;;;3.15;0.90;;;21.60;99.90;;;;;;5013964;28;20100;-67
2022/08/20 08:59:18;;;;;;;4.20;1.30;;;22.20;99.90;;;;;;5010585;28;20065;-68
2022/08/20 09:01:52;;;;;;;4.55;1.30;;;21.60;99.90;;;;;;5013811;28;20439;-68
2022/08/20 09:04:20;;;;;;;9.45;1.60;;;21.70;99.90;;;;;;5015825;28;20073;-68
2022/08/20 09:06:47;;;;;;;4.30;1.30;;;21.50;99.90;;;;;;5009270;28;20456;-68
2022/08/20 09:09:35;;;;;;;3.88;1.00;;;21.80;99.90;;;;;;5032356;28;20057;-68
2022/08/20 09:12:05;;;;;;;3.75;1.15;;;21.50;99.90;;;;;;5033023;28;20053;-68
2022/08/20 09:14:31;;;;;;;3.70;1.05;;;21.50;99.90;;;;;;5018122;28;20418;-68
2022/08/20 09:16:57;;;;;;;3.40;0.85;;;21.50;99.90;;;;;;5035457;28;20107;-68
2022/08/20 09:19:22;;;;;;;4.85;1.17;;;21.60;99.90;;;;;;5031231;28;20494;-67
2022/08/20 09:21:48;;;;;;;3.15;0.80;;;21.60;99.90;;;;;;5033707;28;20064;-67
2022/08/20 09:24:14;;;;;;;5.65;1.27;;;21.70;99.90;;;;;;5034521;28;20125;-67
2022/08/20 09:26:39;;;;;;;3.35;1.30;;;21.80;99.90;;;;;;5013896;28;20045;-67
2022/08/20 09:29:05;;;;;;;2.58;1.00;;;21.90;99.90;;;;;;5033507;28;20067;-68
2022/08/20 09:31:30;;;;;;;4.18;1.00;;;22.00;99.90;;;;;;5016126;28;20042;-68
2022/08/20 09:33:56;;;;;;;3.88;1.02;;;22.00;99.90;;;;;;5035218;28;20053;-68
2022/08/20 09:36:22;;;;;;;6.82;1.10;;;22.10;99.90;;;;;;5033629;28;20049;-69
2022/08/20 09:38:47;;;;;;;2.83;1.10;;;22.10;99.90;;;;;;5015370;28;20085;-69
2022/08/20 09:41:13;;;;;;;4.40;1.05;;;22.60;99.90;;;;;;5034906;28;20041;-68
2022/08/20 09:43:39;;;;;;;3.90;1.02;;;22.40;99.50;;;;;;5035438;28;20104;-68
2022/08/20 09:46:05;;;;;;;4.95;1.40;;;22.30;98.70;;;;;;5034882;28;20042;-68
2022/08/20 09:48:30;;;;;;;2.40;0.73;;;22.50;98.30;;;;;;5035422;28;20547;-68
2022/08/20 09:50:56;;;;;;;3.95;1.20;;;22.40;99.00;;;;;;5034891;28;20148;-68
2022/08/20 09:53:22;;;;;;;5.00;1.40;;;22.70;99.90;;;;;;5032881;28;20512;-68
2022/08/20 09:55:50;;;;;;;3.15;1.27;;;22.50;99.90;;;;;;5034620;28;20049;-69
2022/08/20 09:58:41;;;;;;;3.08;0.90;;;22.70;99.90;;;;;;5016027;28;20116;-68
2022/08/20 10:01:13;;;;;;;3.38;1.38;;;22.80;96.30;;;;;;5007148;28;20195;-68
2022/08/20 10:04:05;;;;;;;4.43;0.90;;;22.90;96.80;;;;;;5030776;28;20047;-68
2022/08/20 10:06:31;;;;;;;3.08;1.10;;;23.20;93.70;;;;;;5031894;28;20068;-69
2022/08/20 10:10:01;;;;;;;;;;;;;;;;;;;;;
2022/08/20 10:13:13;;;;;;;5.30;1.30;;;23.20;94.90;;;;;;5033256;28;20057;-68
2022/08/20 10:16:08;;;;;;;3.78;0.90;;;23.00;96.70;;;;;;5030000;28;20041;-68
2022/08/20 10:18:37;;;;;;;5.65;1.15;;;23.40;95.50;;;;;;5011560;28;20152;-68
2022/08/20 10:21:11;;;;;;;5.93;1.10;;;23.40;97.00;;;;;;5033147;28;20316;-68
2022/08/20 10:23:37;;;;;;;4.80;1.20;;;23.60;92.60;;;;;;5009882;28;20144;-68
2022/08/20 10:26:03;;;;;;;6.35;1.42;;;23.50;93.90;;;;;;5015349;28;20222;-68
2022/08/20 10:28:28;;;;;;;5.07;1.40;;;23.70;93.50;;;;;;5047535;28;20056;-68
2022/08/20 10:30:54;;;;;;;3.90;1.00;;;23.60;90.90;;;;;;5033928;28;20059;-68
2022/08/20 10:33:20;;;;;;;3.83;1.08;;;23.70;93.00;;;;;;5033633;28;20129;-67
2022/08/20 10:35:45;;;;;;;5.18;1.20;;;23.70;91.20;;;;;;5048914;28;20057;-67
2022/08/20 10:38:13;;;;;;;6.18;1.50;;;23.30;90.30;;;;;;5033082;28;20049;-68
2022/08/20 10:40:38;;;;;;;2.83;0.85;;;23.30;90.20;;;;;;5013534;28;20045;-68
2022/08/20 10:43:04;;;;;;;5.20;1.45;;;23.30;90.70;;;;;;5015493;28;20111;-66
2022/08/20 10:45:30;;;;;;;3.75;1.20;;;23.40;89.00;;;;;;5016174;28;20107;-67
2022/08/20 10:47:58;;;;;;;2.75;1.25;;;23.10;85.30;;;;;;5033673;28;20045;-67
2022/08/20 10:50:25;;;;;;;3.53;1.15;;;23.10;90.00;;;;;;5034597;28;20448;-67
2022/08/20 10:52:50;;;;;;;3.78;1.00;;;23.20;89.50;;;;;;5033268;28;20501;-67
2022/08/20 10:55:16;;;;;;;3.38;1.00;;;23.20;90.70;;;;;;5032524;28;20049;-66
2022/08/20 10:57:42;;;;;;;2.70;0.90;;;23.60;90.70;;;;;;5033801;28;20440;-67
2022/08/20 11:00:11;;;;;;;2.90;1.30;;;23.90;89.20;;;;;;5033500;28;20056;-68
2022/08/20 11:02:37;;;;;;;3.55;1.00;;;24.00;82.80;;;;;;5033378;28;20063;-68
2022/08/20 11:05:04;;;;;;;2.65;0.90;;;24.00;81.90;;;;;;5013704;28;20537;-68
2022/08/20 11:07:33;;;;;;;3.90;1.20;;;24.20;82.90;;;;;;5032699;28;20096;-68
2022/08/20 11:09:58;;;;;;;5.18;0.90;;;23.90;79.10;;;;;;5049077;28;20474;-68
2022/08/20 11:12:24;;;;;;;3.13;0.90;;;24.20;79.80;;;;;;5015505;28;20041;-68
2022/08/20 11:14:51;;;;;;;2.30;0.93;;;24.20;77.00;;;;;;5033678;28;20045;-68
2022/08/20 11:17:29;;;;;;;3.45;0.93;;;24.20;74.30;;;;;;5032429;28;20049;-68
2022/08/20 11:19:57;;;;;;;9.07;1.08;;;24.30;79.50;;;;;;5032088;28;20057;-68
2022/08/20 11:22:23;;;;;;;7.18;1.38;;;24.50;75.20;;;;;;5014653;28;20230;-67
2022/08/20 11:24:48;;;;;;;6.43;1.30;;;24.30;73.90;;;;;;5032907;28;20555;-68
2022/08/20 11:27:23;;;;;;;4.75;0.85;;;24.70;73.60;;;;;;5015567;28;20053;-68
2022/08/20 11:29:49;;;;;;;4.10;1.38;;;24.90;70.00;;;;;;5033289;28;20046;-68
2022/08/20 11:32:14;;;;;;;3.63;1.10;;;24.90;71.80;;;;;;5014368;28;20511;-68
2022/08/20 11:34:40;;;;;;;3.88;1.50;;;25.00;71.70;;;;;;5048654;28;20064;-68
2022/08/20 11:37:06;;;;;;;3.83;0.82;;;25.20;72.60;;;;;;5032518;28;20053;-68
2022/08/20 11:39:32;;;;;;;2.33;1.00;;;25.20;69.70;;;;;;5015140;28;20088;-68
2022/08/20 11:41:58;;;;;;;6.78;1.30;;;24.90;67.70;;;;;;5032910;28;20056;-68
2022/08/20 11:44:23;;;;;;;4.30;1.02;;;25.20;68.60;;;;;;5047791;28;20050;-68
2022/08/20 11:46:49;;;;;;;3.40;1.10;;;25.10;66.70;;;;;;5014589;28;20133;-68
2022/08/20 11:49:15;;;;;;;4.43;1.20;;;24.60;67.00;;;;;;5014728;28;20037;-67
2022/08/20 11:51:40;;;;;;;5.47;1.20;;;24.70;67.40;;;;;;5014412;28;20049;-69
2022/08/20 11:54:06;;;;;;;3.58;1.20;;;24.10;67.20;;;;;;5032484;28;20111;-69
2022/08/20 11:56:31;;;;;;;5.57;1.40;;;24.50;68.60;;;;;;5032909;28;20428;-68
2022/08/20 11:58:57;;;;;;;5.75;1.25;;;24.30;67.60;;;;;;4998452;28;20462;-68
2022/08/20 12:01:23;;;;;;;4.93;1.40;;;24.30;67.60;;;;;;5032070;28;20122;-68
2022/08/20 12:03:48;;;;;;;3.38;1.13;;;24.30;66.70;;;;;;5032546;28;20052;-69
2022/08/20 12:06:14;;;;;;;4.88;1.48;;;24.30;65.20;;;;;;5013303;28;20037;-69
2022/08/20 12:08:40;;;;;;;2.90;1.20;;;24.00;66.80;;;;;;5032557;28;20053;-69
2022/08/20 12:11:05;;;;;;;4.43;1.40;;;24.10;67.50;;;;;;5027947;28;20076;-68
2022/08/20 12:13:33;;;;;;;4.65;1.38;;;24.10;68.50;;;;;;5046584;28;20473;-68
2022/08/20 12:15:59;;;;;;;3.75;1.27;;;24.00;68.70;;;;;;5013789;28;20057;-68
2022/08/20 12:18:25;;;;;;;3.75;1.65;;;24.10;69.10;;;;;;5030352;28;20045;-68
2022/08/20 12:24:19;;;;;;;4.35;1.42;;;24.50;66.20;;;;;;5032438;28;20052;-68
2022/08/20 12:26:44;;;;;;;5.45;1.20;;;25.40;68.00;;;;;;5034255;28;20041;-68
2022/08/20 12:29:26;;;;;;;2.70;1.20;;;24.70;65.80;;;;;;5014768;28;20041;-68
2022/08/20 12:32:06;;;;;;;3.75;1.60;;;24.60;64.90;;;;;;4999343;28;20045;-68
2022/08/20 12:36:00;;;;;;;;;;;;;;;;;;;;;
2022/08/20 12:47:05;;;;;;;3.38;1.15;;;24.90;63.30;;;;;;4957324;28;20167;-68
2022/08/20 12:50:07;;;;;;;3.72;1.35;;;23.90;64.20;;;;;;5020381;28;20053;-68
2022/08/20 12:52:33;;;;;;;4.00;1.30;;;24.30;64.30;;;;;;5013956;28;20057;-68
2022/08/20 12:55:00;;;;;;;3.92;1.50;;;24.10;65.70;;;;;;5013789;28;20045;-68
2022/08/20 12:57:28;;;;;;;4.25;1.15;;;24.50;65.90;;;;;;5033182;28;20038;-68
2022/08/20 12:59:56;;;;;;;3.35;1.08;;;24.30;65.60;;;;;;5032226;28;20548;-68
2022/08/20 13:02:30;;;;;;;3.28;1.20;;;24.30;65.30;;;;;;5033648;28;20075;-68
2022/08/20 13:04:56;;;;;;;3.15;1.42;;;24.20;67.50;;;;;;5012736;28;20049;-68
2022/08/20 13:07:21;;;;;;;5.75;1.27;;;24.10;68.30;;;;;;5029103;28;20053;-69
2022/08/20 13:10:53;;;;;;;;;;;;;;;;;;;;;
2022/08/20 13:14:02;;;;;;;4.00;1.40;;;24.00;66.70;;;;;;5033374;28;20052;-69
2022/08/20 13:19:59;;;;;;;3.50;1.10;;;23.70;69.90;;;;;;5014235;28;20125;-68
2022/08/20 13:22:44;;;;;;;3.78;1.10;;;23.70;69.00;;;;;;5025335;28;20054;-68
2022/08/20 13:25:11;;;;;;;3.92;1.25;;;23.60;70.20;;;;;;5011265;28;20045;-68
2022/08/20 13:27:39;;;;;;;4.32;1.20;;;24.10;70.70;;;;;;4978736;28;20053;-69
2022/08/20 13:30:08;;;;;;;5.32;1.33;;;23.70;71.70;;;;;;4995021;28;20459;-68
2022/08/20 13:32:40;;;;;;;2.72;1.17;;;23.90;75.40;;;;;;4993874;28;20107;-68
2022/08/20 13:35:06;;;;;;;;;;;23.80;73.30;;;;;;4998435;28;20050;-69
2022/08/20 13:37:32;;;;;;;4.13;1.30;;;23.80;71.70;;;;;;4997603;28;20274;-68
2022/08/20 13:39:59;;;;;;;3.17;1.58;;;23.80;71.00;;;;;;5014623;28;20542;-68
2022/08/20 13:42:25;;;;;;;4.32;1.27;;;24.30;69.10;;;;;;5014796;28;20046;-68
2022/08/20 13:44:52;;;;;;;3.95;1.20;;;24.20;68.10;;;;;;5015325;28;20085;-68
2022/08/20 13:47:27;;;;;;;5.78;1.40;;;24.30;67.90;;;;;;5014098;28;20046;-70
2022/08/20 13:49:55;;;;;;;4.18;1.38;;;24.60;67.90;;;;;;5013971;28;20069;-68
2022/08/20 13:52:21;;;;;;;5.10;1.50;;;24.70;67.70;;;;;;5013290;28;20195;-69